Time;durP1;ratioP1;P1;durP2;ratioP2;P2;SDS_P1;SDS_P2;PMS_P1;PMS_P2;Temp;Humidity;BMP_temperature;BMP_pressure;BME280_temperature;BME280_humidity;BME280_pressure;Samples;Min_cycle;Max_cycle;Signal;HPM_P1;HPM_P2
2022/03/10 00:00:24;;;;;;;32.70;17.53;;;;;;;2.20;100.00;99794.47;5070416;28;20199;-65
2022/03/10 00:02:52;;;;;;;30.73;15.90;;;;;;;2.07;100.00;99803.56;5070443;28;20224;-64
2022/03/10 00:05:19;;;;;;;29.83;16.97;;;;;;;2.13;100.00;99796.91;5070426;28;20287;-65
2022/03/10 00:07:47;;;;;;;27.50;16.20;;;;;;;2.21;100.00;99801.19;5058787;28;20288;-65
2022/03/10 00:10:14;;;;;;;29.97;17.10;;;;;;;2.26;100.00;99799.56;5051125;28;20220;-65
2022/03/10 00:12:47;;;;;;;31.40;18.27;;;;;;;2.25;100.00;99796.19;5057321;28;20286;-65
2022/03/10 00:15:15;;;;;;;34.63;17.83;;;;;;;2.25;100.00;99797.88;5070241;28;20215;-65
2022/03/10 00:17:42;;;;;;;32.17;19.60;;;;;;;2.22;100.00;99802.91;5070935;28;20291;-65
2022/03/10 00:20:12;;;;;;;36.63;19.60;;;;;;;2.17;100.00;99805.38;5069126;28;20286;-65
2022/03/10 00:22:46;;;;;;;33.23;18.30;;;;;;;2.21;100.00;99798.66;5066032;28;20196;-65
2022/03/10 00:25:14;;;;;;;31.20;16.80;;;;;;;2.09;100.00;99805.31;5073108;28;20583;-65
2022/03/10 00:27:41;;;;;;;22.43;15.27;;;;;;;2.01;100.00;99794.25;5060860;28;20196;-65
2022/03/10 00:30:09;;;;;;;23.20;14.73;;;;;;;1.71;100.00;99799.00;5073753;28;20739;-66
2022/03/10 00:32:42;;;;;;;25.20;15.23;;;;;;;1.40;100.00;99766.59;5070225;28;20228;-65
2022/03/10 00:35:12;;;;;;;27.27;15.47;;;;;;;1.53;100.00;99791.19;5064324;28;20303;-65
2022/03/10 00:37:39;;;;;;;22.43;14.77;;;;;;;1.36;100.00;99787.59;5065565;28;20205;-65
2022/03/10 00:40:07;;;;;;;22.67;14.00;;;;;;;1.31;100.00;99787.53;5065985;28;20210;-65
2022/03/10 00:42:38;;;;;;;20.30;12.73;;;;;;;1.12;100.00;99789.81;5054162;28;20661;-65
2022/03/10 00:45:07;;;;;;;26.50;13.20;;;;;;;1.10;100.00;99781.38;5065369;28;20675;-65
2022/03/10 00:47:34;;;;;;;19.95;12.70;;;;;;;1.02;100.00;99768.63;5073712;28;20736;-66
2022/03/10 00:50:01;;;;;;;19.80;12.97;;;;;;;1.13;100.00;99776.38;5057077;28;21107;-65
2022/03/10 00:52:29;;;;;;;19.83;13.03;;;;;;;1.16;100.00;99781.44;5054069;28;20327;-66
2022/03/10 00:54:56;;;;;;;13.50;10.37;;;;;;;0.89;100.00;99770.16;5053566;28;20219;-65
2022/03/10 00:57:23;;;;;;;7.53;6.83;;;;;;;0.75;100.00;99784.22;5053706;28;20315;-66
2022/03/10 00:59:50;;;;;;;6.10;5.60;;;;;;;0.65;100.00;99797.50;5053531;28;20647;-66
2022/03/10 01:02:17;;;;;;;5.50;5.10;;;;;;;0.39;100.00;99811.38;5053754;28;20741;-66
2022/03/10 01:04:44;;;;;;;5.10;4.80;;;;;;;0.37;100.00;99805.47;5053703;28;20288;-66
2022/03/10 01:07:11;;;;;;;4.67;4.37;;;;;;;0.40;100.00;99801.31;5053527;28;20274;-66
2022/03/10 01:09:40;;;;;;;5.10;4.73;;;;;;;0.40;100.00;99806.38;5066286;28;20231;-65
2022/03/10 01:12:07;;;;;;;4.30;4.00;;;;;;;0.40;100.00;99798.81;5066225;28;20290;-67
2022/03/10 01:14:34;;;;;;;4.67;4.30;;;;;;;0.48;96.80;99791.38;5072500;28;20211;-66
2022/03/10 01:17:02;;;;;;;6.10;5.43;;;;;;;0.46;96.20;99770.31;5065218;28;20285;-66
2022/03/10 01:19:29;;;;;;;6.10;5.60;;;;;;;0.62;99.21;99787.38;5053500;28;20291;-65
2022/03/10 01:21:57;;;;;;;5.57;5.17;;;;;;;0.73;100.00;99775.78;5052602;28;20669;-65
2022/03/10 01:24:24;;;;;;;6.30;5.80;;;;;;;0.76;100.00;99770.78;5060813;28;20274;-66
2022/03/10 01:26:52;;;;;;;6.77;6.17;;;;;;;0.91;100.00;99783.63;5073040;28;20192;-65
2022/03/10 01:29:19;;;;;;;7.33;6.70;;;;;;;0.94;100.00;99776.09;5061676;28;20248;-65
2022/03/10 01:31:46;;;;;;;7.67;6.83;;;;;;;0.84;100.00;99784.34;5053244;28;20192;-65
2022/03/10 01:34:13;;;;;;;6.50;6.00;;;;;;;0.82;100.00;99783.50;5052657;28;20207;-66
2022/03/10 01:36:41;;;;;;;5.83;5.33;;;;;;;0.93;100.00;99789.56;5053071;28;20200;-66
2022/03/10 01:39:08;;;;;;;5.87;5.27;;;;;;;0.58;100.00;99793.22;5053081;28;20196;-66
2022/03/10 01:41:36;;;;;;;5.07;4.77;;;;;;;0.47;100.00;99787.16;5052563;28;20205;-65
2022/03/10 01:44:06;;;;;;;5.73;5.33;;;;;;;0.43;100.00;99781.19;5052853;28;20200;-66
2022/03/10 01:46:33;;;;;;;6.07;5.77;;;;;;;0.34;100.00;99790.28;5062670;28;20649;-65
2022/03/10 01:49:01;;;;;;;5.23;4.93;;;;;;;0.44;100.00;99782.91;5058607;28;20239;-66
2022/03/10 01:51:29;;;;;;;5.30;4.90;;;;;;;0.47;100.00;99792.19;5052625;28;20205;-65
2022/03/10 01:53:56;;;;;;;5.20;4.90;;;;;;;0.43;100.00;99790.44;5052492;28;20197;-65
2022/03/10 01:56:26;;;;;;;5.53;5.13;;;;;;;0.62;100.00;99787.38;5052442;28;20311;-66
2022/03/10 01:58:54;;;;;;;5.97;5.57;;;;;;;0.76;100.00;99785.06;5052490;28;20243;-66
2022/03/10 02:01:23;;;;;;;5.33;4.97;;;;;;;0.80;100.00;99791.88;5052660;28;20197;-66
2022/03/10 02:03:49;;;;;;;5.40;5.10;;;;;;;0.81;100.00;99784.31;5052510;28;20288;-65
2022/03/10 02:06:17;;;;;;;5.10;4.73;;;;;;;0.71;100.00;99779.13;5052242;28;20288;-65
2022/03/10 02:11:24;;;;;;;5.77;5.30;;;;;;;0.85;100.00;99782.69;5033414;28;20208;-66
2022/03/10 02:13:51;;;;;;;6.50;5.90;;;;;;;0.81;100.00;99789.34;5063157;28;20201;-65
2022/03/10 02:19:05;;;;;;;6.07;5.57;;;;;;;1.01;100.00;99777.88;5071728;28;20584;-66
2022/03/10 02:21:32;;;;;;;5.90;5.23;;;;;;;1.09;100.00;99779.66;5072102;28;20211;-66
2022/03/10 02:24:00;;;;;;;5.40;5.07;;;;;;;1.16;100.00;99778.94;5072283;28;20683;-66
2022/03/10 02:26:27;;;;;;;5.47;5.17;;;;;;;1.22;100.00;99784.06;5072009;28;20196;-66
2022/03/10 02:28:54;;;;;;;5.67;5.27;;;;;;;1.23;100.00;99780.72;5071932;28;20287;-65
2022/03/10 02:31:21;;;;;;;4.90;4.60;;;;;;;1.32;100.00;99790.94;5071965;28;20676;-66
2022/03/10 02:33:48;;;;;;;5.67;5.27;;;;;;;1.41;100.00;99791.03;5070187;28;20291;-66
2022/03/10 02:36:15;;;;;;;5.70;5.30;;;;;;;1.44;100.00;99788.53;5052118;28;20199;-66
2022/03/10 02:38:42;;;;;;;6.67;6.27;;;;;;;1.46;99.90;99790.25;5051564;28;20197;-66
2022/03/10 02:41:10;;;;;;;6.33;5.90;;;;;;;1.51;99.75;99795.38;5051672;28;20724;-66
2022/03/10 02:43:37;;;;;;;6.17;5.73;;;;;;;1.33;99.07;99777.44;5065925;28;20204;-65
2022/03/10 02:46:04;;;;;;;5.83;5.00;;;;;;;1.24;97.14;99784.91;5071213;28;20286;-66
2022/03/10 02:48:31;;;;;;;5.50;5.17;;;;;;;1.24;96.63;99802.59;5070948;28;20207;-66
2022/03/10 02:50:58;;;;;;;5.43;4.93;;;;;;;1.25;97.57;99801.78;5071200;28;20684;-66
2022/03/10 02:53:25;;;;;;;5.97;5.50;;;;;;;1.30;97.78;99806.03;5071316;28;20283;-66
2022/03/10 02:55:52;;;;;;;6.43;5.80;;;;;;;1.34;97.31;99812.00;5071057;28;20226;-66
2022/03/10 02:58:20;;;;;;;5.00;4.70;;;;;;;1.40;97.50;99814.59;5071503;28;20278;-66
2022/03/10 03:00:48;;;;;;;5.03;4.63;;;;;;;1.42;97.89;99815.47;5071297;28;20192;-66
2022/03/10 03:03:15;;;;;;;5.23;4.93;;;;;;;1.47;97.92;99808.78;5071066;28;20286;-66
2022/03/10 03:05:42;;;;;;;6.73;6.07;;;;;;;1.46;97.48;99812.13;5066806;28;20192;-66
2022/03/10 03:08:09;;;;;;;4.90;4.60;;;;;;;1.47;96.50;99819.75;5052652;28;20258;-66
2022/03/10 03:10:36;;;;;;;5.50;5.00;;;;;;;1.55;97.22;99817.34;5059742;28;20303;-66
2022/03/10 03:13:05;;;;;;;5.37;5.03;;;;;;;1.55;96.28;99817.34;5053355;28;20647;-66
2022/03/10 03:15:34;;;;;;;5.10;4.87;;;;;;;1.53;95.71;99818.97;5050814;28;20200;-66
2022/03/10 03:18:01;;;;;;;4.97;4.67;;;;;;;1.54;96.52;99825.72;5065584;28;20204;-66
2022/03/10 03:20:28;;;;;;;5.53;5.13;;;;;;;1.49;95.52;99817.22;5070783;28;20283;-66
2022/03/10 03:22:55;;;;;;;4.50;4.30;;;;;;;1.36;94.48;99820.41;5070871;28;20208;-66
2022/03/10 03:25:22;;;;;;;4.83;4.53;;;;;;;1.23;94.88;99808.50;5070517;28;20235;-66
2022/03/10 03:27:49;;;;;;;5.23;4.83;;;;;;;1.30;96.40;99813.63;5071065;28;20196;-66
2022/03/10 03:30:17;;;;;;;3.90;3.67;;;;;;;1.38;97.08;99814.59;5070730;28;20216;-66
2022/03/10 03:32:46;;;;;;;7.07;4.80;;;;;;;1.42;97.08;99816.31;5070624;28;20196;-66
2022/03/10 03:35:14;;;;;;;5.67;5.27;;;;;;;1.50;96.83;99824.84;5070710;28;20253;-66
2022/03/10 03:37:41;;;;;;;5.57;4.77;;;;;;;1.35;95.27;99814.56;5071008;28;20204;-66
2022/03/10 03:40:09;;;;;;;6.10;5.70;;;;;;;1.36;93.74;99825.47;5070368;28;20200;-66
2022/03/10 03:42:36;;;;;;;7.17;6.47;;;;;;;1.28;94.69;99822.00;5055682;28;20208;-66
2022/03/10 03:45:05;;;;;;;5.30;4.90;;;;;;;1.32;95.47;99826.28;5050545;28;20204;-66
2022/03/10 03:47:32;;;;;;;5.40;5.10;;;;;;;1.31;95.87;99824.56;5050568;28;20659;-66
2022/03/10 03:50:00;;;;;;;5.13;4.83;;;;;;;1.30;96.37;99821.19;5050664;28;20304;-65
2022/03/10 03:52:27;;;;;;;5.80;5.43;;;;;;;1.42;96.73;99836.50;5052774;28;20731;-66
2022/03/10 03:54:54;;;;;;;5.17;4.87;;;;;;;1.46;96.97;99833.19;5069407;28;20283;-66
2022/03/10 03:57:21;;;;;;;5.30;5.00;;;;;;;1.55;97.51;99840.06;5068014;28;20311;-66
2022/03/10 03:59:48;;;;;;;5.33;5.03;;;;;;;1.56;97.48;99839.22;5070478;28;20196;-66
2022/03/10 04:02:15;;;;;;;5.20;4.83;;;;;;;1.70;97.59;99842.78;5070563;28;20207;-66
2022/03/10 04:04:42;;;;;;;7.77;7.10;;;;;;;1.69;97.42;99851.19;5063617;28;20200;-66
2022/03/10 04:07:10;;;;;;;8.10;7.47;;;;;;;1.67;97.40;99842.75;5067287;28;20196;-66
2022/03/10 04:09:37;;;;;;;8.47;7.67;;;;;;;1.74;97.53;99849.56;5062069;28;20330;-66
2022/03/10 04:12:04;;;;;;;7.67;6.93;;;;;;;1.80;97.57;99854.69;5069152;28;20207;-66
2022/03/10 04:14:31;;;;;;;6.93;6.27;;;;;;;1.82;97.44;99853.03;5069853;28;20287;-66
2022/03/10 04:16:58;;;;;;;6.53;6.07;;;;;;;1.84;97.41;99860.66;5070439;28;20287;-66
2022/03/10 04:19:25;;;;;;;6.40;6.00;;;;;;;1.81;97.58;99863.13;5052231;28;20661;-66
2022/03/10 04:21:52;;;;;;;8.50;6.43;;;;;;;1.81;97.20;99866.50;5070049;28;20275;-66
2022/03/10 04:24:20;;;;;;;8.20;7.60;;;;;;;1.80;97.59;99869.88;5070197;28;20290;-66
2022/03/10 04:26:47;;;;;;;10.57;9.20;;;;;;;1.82;97.60;99874.94;5057530;28;20572;-66
2022/03/10 04:29:14;;;;;;;12.50;9.10;;;;;;;1.80;97.82;99874.06;5055622;28;20200;-66
2022/03/10 04:31:42;;;;;;;11.93;10.40;;;;;;;1.76;97.83;99875.72;5070004;28;20703;-66
2022/03/10 04:34:09;;;;;;;9.67;8.77;;;;;;;1.77;98.09;99882.47;5070256;28;20215;-66
2022/03/10 04:36:36;;;;;;;18.03;12.03;;;;;;;1.79;98.74;99883.31;5070161;28;20622;-66
2022/03/10 04:39:04;;;;;;;13.23;10.20;;;;;;;1.81;98.92;99891.75;5070015;28;20287;-66
2022/03/10 04:41:34;;;;;;;14.27;11.00;;;;;;;1.73;99.01;99882.41;5070223;28;20196;-66
2022/03/10 04:44:01;;;;;;;14.23;10.20;;;;;;;1.76;99.38;99892.53;5070032;28;20194;-66
2022/03/10 04:46:28;;;;;;;9.73;8.73;;;;;;;1.81;100.00;99909.47;5070213;28;20732;-66
2022/03/10 04:48:55;;;;;;;10.53;8.63;;;;;;;1.84;100.00;99906.16;5069871;28;20200;-66
2022/03/10 04:51:22;;;;;;;11.07;8.63;;;;;;;1.69;100.00;99896.66;5070093;28;20212;-66
2022/03/10 04:53:49;;;;;;;7.63;6.13;;;;;;;1.81;99.92;99917.03;5069761;28;20306;-66
2022/03/10 04:56:16;;;;;;;5.97;5.47;;;;;;;1.80;99.89;99924.63;5070016;28;20314;-66
2022/03/10 04:58:45;;;;;;;7.77;5.47;;;;;;;1.81;99.78;99926.31;5072576;28;20291;-66
2022/03/10 05:01:12;;;;;;;6.50;6.07;;;;;;;1.81;100.00;99927.16;5071077;28;20310;-66
2022/03/10 05:03:39;;;;;;;6.00;5.43;;;;;;;1.73;100.00;99928.75;5061942;28;20211;-66
2022/03/10 05:06:06;;;;;;;7.47;6.83;;;;;;;1.66;100.00;99931.16;5068532;28;20201;-67
2022/03/10 05:08:33;;;;;;;9.17;7.70;;;;;;;1.50;100.00;99936.00;5065574;28;20207;-67
2022/03/10 05:11:00;;;;;;;6.60;6.13;;;;;;;1.48;100.00;99936.81;5073293;28;20710;-66
2022/03/10 05:13:27;;;;;;;7.63;6.97;;;;;;;1.40;100.00;99938.34;5073405;28;20291;-66
2022/03/10 05:15:55;;;;;;;7.37;6.50;;;;;;;1.36;100.00;99936.59;5053187;28;20580;-66
2022/03/10 05:18:22;;;;;;;6.80;6.30;;;;;;;1.22;100.00;99943.13;5053092;28;20288;-67
2022/03/10 05:20:49;;;;;;;7.00;6.30;;;;;;;1.18;100.00;99942.25;5062955;28;20196;-67
2022/03/10 05:23:16;;;;;;;6.50;6.00;;;;;;;1.23;100.00;99954.94;5068501;28;20197;-67
2022/03/10 05:25:43;;;;;;;7.90;7.10;;;;;;;1.29;100.00;99950.00;5053454;28;20287;-67
2022/03/10 05:28:14;;;;;;;7.43;6.33;;;;;;;1.28;100.00;99965.97;5064954;28;20200;-67
2022/03/10 05:30:42;;;;;;;8.77;7.97;;;;;;;1.24;100.00;99966.72;5056902;28;20302;-67
2022/03/10 05:33:12;;;;;;;7.00;6.40;;;;;;;1.07;100.00;99961.41;5069235;28;20573;-66
2022/03/10 05:35:39;;;;;;;9.03;7.63;;;;;;;1.08;100.00;99964.78;5065077;28;20196;-66
2022/03/10 05:38:07;;;;;;;7.67;6.83;;;;;;;1.09;100.00;99966.50;5063525;28;20196;-67
2022/03/10 05:40:34;;;;;;;7.07;6.47;;;;;;;1.17;100.00;99969.97;5061746;28;20193;-66
2022/03/10 05:43:01;;;;;;;7.83;7.13;;;;;;;1.26;100.00;99970.16;5065933;28;20204;-66
2022/03/10 05:45:28;;;;;;;7.93;7.23;;;;;;;1.27;100.00;99976.88;5067031;28;20200;-66
2022/03/10 05:47:56;;;;;;;7.23;6.60;;;;;;;1.16;100.00;99950.63;5070905;28;20203;-66
2022/03/10 05:50:26;;;;;;;8.00;7.30;;;;;;;1.45;100.00;99982.25;5072854;28;20306;-66
2022/03/10 05:52:53;;;;;;;6.77;6.27;;;;;;;1.52;100.00;99981.47;5052969;28;20204;-66
2022/03/10 05:55:23;;;;;;;7.60;7.00;;;;;;;1.66;100.00;99976.63;5060925;28;20283;-66
2022/03/10 05:57:50;;;;;;;7.10;6.57;;;;;;;1.79;100.00;99981.91;5052466;28;20611;-65
2022/03/10 06:00:17;;;;;;;7.27;6.87;;;;;;;1.88;100.00;99966.84;5052630;28;20208;-65
2022/03/10 06:02:44;;;;;;;7.40;6.80;;;;;;;2.13;100.00;99988.28;5065746;28;20196;-65
2022/03/10 06:05:12;;;;;;;7.37;6.77;;;;;;;2.28;100.00;99980.88;5061103;28;20298;-66
2022/03/10 06:07:40;;;;;;;7.07;6.33;;;;;;;2.34;100.00;99990.22;5072185;28;20274;-65
2022/03/10 06:10:08;;;;;;;7.27;6.50;;;;;;;2.40;100.00;99992.81;5069552;28;20234;-66
2022/03/10 06:12:35;;;;;;;8.10;6.60;;;;;;;2.49;100.00;99995.44;5072114;28;20206;-65
2022/03/10 06:15:05;;;;;;;7.27;6.77;;;;;;;2.53;100.00;99999.72;5072419;28;20291;-65
2022/03/10 06:17:32;;;;;;;7.83;7.17;;;;;;;2.46;100.00;99985.28;5072339;28;20282;-66
2022/03/10 06:20:00;;;;;;;7.33;6.60;;;;;;;2.58;100.00;100003.16;5072400;28;20192;-66
2022/03/10 06:22:29;;;;;;;7.70;7.00;;;;;;;2.49;100.00;100001.34;5072352;28;21732;-65
2022/03/10 06:24:58;;;;;;;7.33;6.73;;;;;;;2.42;100.00;100002.13;5067930;28;20573;-66
2022/03/10 06:27:26;;;;;;;7.87;7.17;;;;;;;2.21;100.00;100011.97;5052048;28;20300;-65
2022/03/10 06:29:54;;;;;;;7.77;7.17;;;;;;;2.11;100.00;100002.56;5051694;28;20212;-65
2022/03/10 06:32:22;;;;;;;7.43;6.80;;;;;;;2.06;100.00;100002.50;5051900;28;20240;-65
2022/03/10 06:34:53;;;;;;;7.20;6.60;;;;;;;1.98;100.00;100001.56;5051756;28;20291;-65
2022/03/10 06:37:20;;;;;;;8.77;8.07;;;;;;;1.93;100.00;99990.53;5051825;28;20291;-65
2022/03/10 06:39:47;;;;;;;6.53;5.90;;;;;;;2.13;100.00;100005.13;5056175;28;20199;-65
2022/03/10 06:42:16;;;;;;;7.13;6.53;;;;;;;2.16;100.00;100010.22;5066378;28;21873;-66
2022/03/10 06:44:43;;;;;;;7.60;7.10;;;;;;;2.25;100.00;100010.34;5057846;28;20287;-65
2022/03/10 06:47:11;;;;;;;8.27;6.77;;;;;;;2.27;100.00;100019.63;5059429;28;20235;-66
2022/03/10 06:49:38;;;;;;;7.47;6.97;;;;;;;2.21;100.00;100018.69;5060118;28;20199;-67
2022/03/10 06:52:06;;;;;;;7.60;6.80;;;;;;;2.25;100.00;100020.44;5060376;28;20318;-66
2022/03/10 06:54:33;;;;;;;7.17;6.67;;;;;;;2.32;100.00;100017.19;5069455;28;20212;-67
2022/03/10 06:57:00;;;;;;;7.00;6.60;;;;;;;2.41;100.00;100020.66;5059018;28;20319;-67
2022/03/10 06:59:28;;;;;;;8.13;7.43;;;;;;;2.54;100.00;100024.19;5059950;28;20201;-66
2022/03/10 07:01:55;;;;;;;8.20;7.47;;;;;;;2.55;100.00;100003.13;5067516;28;20199;-65
2022/03/10 07:04:22;;;;;;;11.40;9.27;;;;;;;2.72;100.00;100026.94;5066343;28;20234;-66
2022/03/10 07:06:49;;;;;;;13.77;7.47;;;;;;;2.74;100.00;100022.75;5067577;28;20724;-65
2022/03/10 07:09:18;;;;;;;10.57;6.57;;;;;;;2.86;100.00;100027.94;5062918;28;20211;-65
2022/03/10 07:11:45;;;;;;;7.63;7.03;;;;;;;2.85;100.00;100026.22;5069936;28;20216;-65
2022/03/10 07:14:12;;;;;;;6.97;6.57;;;;;;;2.87;100.00;100024.59;5054389;28;20666;-65
2022/03/10 07:16:41;;;;;;;7.23;6.73;;;;;;;2.99;100.00;100027.25;5061577;28;20292;-66
2022/03/10 07:19:09;;;;;;;6.47;6.03;;;;;;;3.06;99.68;100035.75;5061609;28;20291;-66
2022/03/10 07:21:37;;;;;;;6.10;5.60;;;;;;;3.09;97.31;100025.63;5059014;28;20880;-65
2022/03/10 07:24:06;;;;;;;7.77;6.80;;;;;;;3.28;96.93;100024.97;5060505;28;20196;-66
2022/03/10 07:26:33;;;;;;;7.87;6.23;;;;;;;3.44;96.76;100036.09;5056053;28;20200;-66
2022/03/10 07:29:00;;;;;;;7.33;6.73;;;;;;;3.53;99.85;100033.63;5062149;28;20764;-67
2022/03/10 07:31:27;;;;;;;9.77;7.13;;;;;;;3.67;100.00;100032.91;5064948;28;20276;-66
2022/03/10 07:33:55;;;;;;;47.47;10.13;;;;;;;3.79;98.22;100037.22;5053667;28;20577;-66
2022/03/10 07:36:23;;;;;;;6.03;5.57;;;;;;;3.95;97.57;100033.09;5051365;28;20723;-66
2022/03/10 07:38:50;;;;;;;10.07;9.30;;;;;;;3.94;95.27;100039.84;5056924;28;20196;-66
2022/03/10 07:41:16;;;;;;;6.77;6.17;;;;;;;3.99;94.49;100040.75;5065029;28;20299;-66
2022/03/10 07:43:43;;;;;;;6.30;5.70;;;;;;;4.12;94.22;100037.44;5058823;28;20312;-66
2022/03/10 07:46:10;;;;;;;6.47;6.03;;;;;;;4.10;92.63;100034.03;5063764;28;20199;-66
2022/03/10 07:48:37;;;;;;;5.83;5.43;;;;;;;4.05;93.53;100035.69;5061727;28;20671;-65
2022/03/10 07:51:05;;;;;;;6.00;5.57;;;;;;;4.05;92.46;100032.31;5057874;28;20222;-66
2022/03/10 07:53:33;;;;;;;5.77;5.37;;;;;;;3.94;93.47;100021.28;5059688;28;20291;-65
2022/03/10 07:56:00;;;;;;;5.67;5.27;;;;;;;4.14;93.51;100025.59;5061198;28;20223;-65
2022/03/10 07:58:27;;;;;;;6.30;5.97;;;;;;;4.38;93.30;100024.03;5058126;28;20638;-65
2022/03/10 08:00:55;;;;;;;5.30;5.00;;;;;;;4.39;89.96;100030.81;5057626;28;20215;-64
2022/03/10 08:03:22;;;;;;;4.93;4.63;;;;;;;4.39;88.21;100030.81;5061844;28;20227;-65
2022/03/10 08:05:50;;;;;;;5.43;5.03;;;;;;;4.40;91.54;100028.28;5068502;28;20575;-67
2022/03/10 08:08:18;;;;;;;5.73;5.43;;;;;;;4.54;88.62;100025.81;5061703;28;20671;-67
2022/03/10 08:10:46;;;;;;;5.53;5.23;;;;;;;4.61;90.37;100027.53;5052836;28;20195;-67
2022/03/10 08:13:13;;;;;;;4.83;4.50;;;;;;;4.49;88.71;100017.34;5058587;28;20221;-66
2022/03/10 08:15:40;;;;;;;4.50;4.17;;;;;;;4.41;87.23;100019.81;5062987;28;20204;-66
2022/03/10 08:18:07;;;;;;;4.90;4.60;;;;;;;4.57;90.83;100018.19;5062007;28;20675;-67
2022/03/10 08:20:34;;;;;;;4.90;4.50;;;;;;;4.60;85.95;100021.59;5053767;28;20206;-66
2022/03/10 08:23:02;;;;;;;4.50;4.30;;;;;;;4.60;84.98;100020.75;5060065;28;20279;-66
2022/03/10 08:25:30;;;;;;;3.70;3.47;;;;;;;4.63;83.64;100028.38;5054426;28;20207;-66
2022/03/10 08:27:57;;;;;;;4.27;4.07;;;;;;;4.65;85.86;100026.72;5055717;28;20211;-66
2022/03/10 08:30:24;;;;;;;4.23;4.03;;;;;;;4.51;83.89;100033.41;5059080;28;20208;-66
2022/03/10 08:32:51;;;;;;;4.43;4.13;;;;;;;4.59;83.01;100024.13;5061533;28;20216;-66
2022/03/10 08:35:18;;;;;;;8.03;3.93;;;;;;;4.64;79.36;100030.06;5060145;28;20679;-66
2022/03/10 08:37:45;;;;;;;3.77;3.53;;;;;;;4.72;82.03;100030.94;5061360;28;20287;-66
2022/03/10 08:40:15;;;;;;;3.87;3.57;;;;;;;4.93;85.17;100033.56;5064154;28;20211;-66
2022/03/10 08:42:44;;;;;;;4.33;4.13;;;;;;;4.99;82.94;100041.19;5063600;28;20211;-66
2022/03/10 08:45:11;;;;;;;4.60;4.30;;;;;;;4.93;76.51;100015.78;5061189;28;20296;-66
2022/03/10 08:47:38;;;;;;;4.03;3.83;;;;;;;5.01;79.01;100039.50;5063539;28;20199;-69
2022/03/10 08:50:06;;;;;;;4.63;4.23;;;;;;;5.12;78.73;100042.06;5067564;28;20196;-66
2022/03/10 08:52:33;;;;;;;4.00;3.80;;;;;;;5.24;77.64;100042.94;5065129;28;20691;-66
2022/03/10 08:55:00;;;;;;;3.87;3.67;;;;;;;5.09;71.81;100032.75;5066277;28;20293;-66
2022/03/10 08:57:27;;;;;;;4.57;4.17;;;;;;;5.29;76.61;100036.19;5061415;28;20246;-66
2022/03/10 08:59:57;;;;;;;3.80;3.57;;;;;;;5.40;73.17;100048.88;5054359;28;20304;-66
2022/03/10 09:02:24;;;;;;;3.50;3.40;;;;;;;5.31;69.77;100038.69;5062156;28;20561;-66
2022/03/10 09:04:51;;;;;;;3.40;3.30;;;;;;;5.08;74.96;100046.28;5057137;28;20207;-66
2022/03/10 09:07:18;;;;;;;3.33;3.17;;;;;;;5.13;75.52;100039.53;5066186;28;20258;-66
2022/03/10 09:09:45;;;;;;;3.77;3.57;;;;;;;5.27;74.32;100037.00;5064058;28;20321;-66
2022/03/10 09:12:12;;;;;;;3.20;3.03;;;;;;;5.32;74.21;100040.41;5069547;28;20227;-68
2022/03/10 09:14:39;;;;;;;3.57;3.37;;;;;;;5.33;69.82;100041.25;5060254;28;20311;-65
2022/03/10 09:17:08;;;;;;;9.57;4.00;;;;;;;5.22;71.23;100042.09;5054747;28;20335;-65
2022/03/10 09:19:35;;;;;;;3.30;3.10;;;;;;;5.34;72.92;100038.69;5063693;28;20235;-66
2022/03/10 09:22:02;;;;;;;3.60;3.40;;;;;;;5.59;73.86;100037.03;5066725;28;20215;-65
2022/03/10 09:24:30;;;;;;;3.70;3.50;;;;;;;5.66;73.25;100041.25;5062584;28;20687;-66
2022/03/10 09:26:57;;;;;;;4.83;4.53;;;;;;;5.61;75.83;100040.41;5055376;28;20236;-66
2022/03/10 09:29:24;;;;;;;4.47;4.13;;;;;;;5.70;77.57;100035.31;5063937;28;20715;-66
2022/03/10 09:31:52;;;;;;;3.97;3.70;;;;;;;5.71;75.67;100026.84;5069031;28;20672;-66
2022/03/10 09:34:20;;;;;;;3.60;3.40;;;;;;;5.69;71.08;100014.13;5064167;28;20692;-66
2022/03/10 09:36:47;;;;;;;3.43;3.23;;;;;;;5.66;71.45;100037.03;5058664;28;20201;-66
2022/03/10 09:39:14;;;;;;;4.40;4.10;;;;;;;5.72;74.74;100010.72;5060004;28;20656;-66
2022/03/10 09:41:42;;;;;;;4.07;3.87;;;;;;;5.94;71.52;100037.91;5066575;28;20192;-65
2022/03/10 09:44:14;;;;;;;3.83;3.63;;;;;;;5.83;69.47;100026.84;5065034;28;20579;-66
2022/03/10 09:46:42;;;;;;;4.37;4.07;;;;;;;5.85;72.04;100022.59;5059071;28;20208;-66
2022/03/10 09:49:10;;;;;;;4.97;4.57;;;;;;;5.70;71.39;100018.38;5062462;28;20573;-67
2022/03/10 09:51:38;;;;;;;3.97;3.77;;;;;;;5.73;72.34;100023.47;5062519;28;20200;-66
2022/03/10 09:54:05;;;;;;;5.13;4.43;;;;;;;5.29;69.97;100036.19;5068702;28;20279;-65
2022/03/10 09:56:36;;;;;;;5.10;4.70;;;;;;;5.20;74.54;100033.59;5053490;28;20706;-64
2022/03/10 09:59:07;;;;;;;4.73;4.30;;;;;;;5.14;71.10;100032.75;5061284;28;20201;-64
2022/03/10 10:01:34;;;;;;;4.63;4.33;;;;;;;5.01;72.26;100029.31;5065331;28;20603;-64
2022/03/10 10:04:01;;;;;;;4.53;4.33;;;;;;;4.96;73.28;100038.66;5065345;28;20295;-65
2022/03/10 10:06:28;;;;;;;4.73;4.33;;;;;;;5.01;74.55;100031.88;5056297;28;20727;-65
2022/03/10 10:08:57;;;;;;;4.53;4.33;;;;;;;4.95;72.57;100029.31;5063122;28;20295;-64
2022/03/10 10:11:32;;;;;;;5.27;4.97;;;;;;;4.89;73.13;100029.31;5060063;28;20287;-64
2022/03/10 10:14:00;;;;;;;4.50;4.20;;;;;;;4.86;72.47;100031.00;5055875;28;20208;-65
2022/03/10 10:16:27;;;;;;;3.40;3.20;;;;;;;4.85;69.90;100035.22;5058893;28;20300;-64
2022/03/10 10:18:56;;;;;;;3.50;3.30;;;;;;;4.90;66.13;100036.09;5064499;28;20223;-65
2022/03/10 10:21:24;;;;;;;3.00;2.80;;;;;;;4.93;64.86;100036.09;5062508;28;20602;-64
2022/03/10 10:23:54;;;;;;;5.50;5.20;;;;;;;5.01;66.91;100034.41;5058221;28;20192;-64
2022/03/10 10:26:26;;;;;;;3.90;3.70;;;;;;;5.07;68.05;100028.50;5057536;28;20656;-64
2022/03/10 10:28:54;;;;;;;3.23;3.13;;;;;;;4.99;69.29;100020.88;5061386;28;20263;-64
2022/03/10 10:31:24;;;;;;;2.83;2.73;;;;;;;5.06;66.59;100027.66;5063027;28;20207;-65
2022/03/10 10:34:02;;;;;;;15.67;14.17;;;;;;;5.15;68.79;100020.03;5057803;28;20220;-64
2022/03/10 10:36:30;;;;;;;3.57;3.43;;;;;;;5.24;66.94;100021.75;5057603;28;20250;-65
2022/03/10 10:39:07;;;;;;;3.50;3.20;;;;;;;5.40;71.45;100022.59;5057438;28;20254;-64
2022/03/10 10:41:36;;;;;;;4.10;3.90;;;;;;;5.69;68.81;100020.91;5067612;28;20199;-65
2022/03/10 10:44:06;;;;;;;3.10;3.00;;;;;;;5.85;71.46;100012.41;5066157;28;20672;-64
2022/03/10 10:46:34;;;;;;;3.10;3.00;;;;;;;5.79;57.90;100017.50;5065269;28;20200;-64
2022/03/10 10:49:04;;;;;;;5.40;5.10;;;;;;;6.07;65.35;100003.09;5060332;28;20311;-65
2022/03/10 10:51:33;;;;;;;2.77;2.67;;;;;;;6.14;58.64;100017.50;5062078;28;20291;-65
2022/03/10 10:54:01;;;;;;;4.27;3.87;;;;;;;6.32;64.15;100003.00;5064531;28;20223;-66
2022/03/10 10:56:30;;;;;;;10.40;3.17;;;;;;;6.43;62.41;100002.94;5055777;28;20819;-66
2022/03/10 10:59:00;;;;;;;3.80;3.60;;;;;;;6.32;62.32;100005.56;5055924;28;20197;-66
2022/03/10 11:01:32;;;;;;;3.53;3.33;;;;;;;6.29;61.33;100005.56;5067310;28;20277;-65
2022/03/10 11:03:59;;;;;;;5.13;2.83;;;;;;;6.08;63.25;99999.66;5068904;28;20778;-65
2022/03/10 11:06:26;;;;;;;13.33;9.93;;;;;;;5.52;61.21;100017.53;5060112;28;20330;-65
2022/03/10 11:08:54;;;;;;;7.00;6.40;;;;;;;5.16;60.44;100015.81;5056334;28;20201;-65
2022/03/10 11:11:21;;;;;;;3.17;2.87;;;;;;;5.26;62.82;100010.75;5056106;28;20648;-65
2022/03/10 11:13:48;;;;;;;2.70;2.60;;;;;;;5.50;62.53;100009.03;5069371;28;20222;-65
2022/03/10 11:16:17;;;;;;;3.43;3.10;;;;;;;5.46;62.21;100002.28;5065138;28;20196;-65
2022/03/10 11:18:49;;;;;;;3.00;2.77;;;;;;;5.56;62.31;100002.25;5061877;28;20204;-65
2022/03/10 11:21:31;;;;;;;2.90;2.80;;;;;;;5.66;63.96;99990.38;5066950;28;20204;-65
2022/03/10 11:24:12;;;;;;;3.70;3.50;;;;;;;5.75;64.54;99995.50;5059351;28;20292;-65
2022/03/10 11:26:46;;;;;;;13.20;12.10;;;;;;;5.62;61.03;99976.00;5053905;28;20265;-64
2022/03/10 11:29:21;;;;;;;6.93;6.23;;;;;;;5.40;64.00;99992.09;5061687;28;20218;-66
2022/03/10 11:31:49;;;;;;;10.60;8.77;;;;;;;5.16;62.22;99992.94;5069377;28;20206;-67
2022/03/10 11:34:48;;;;;;;16.63;9.67;;;;;;;5.20;65.02;99994.66;5061180;28;20759;-67
2022/03/10 11:37:37;;;;;;;7.50;6.80;;;;;;;5.35;65.16;99984.47;5052547;28;20287;-65
2022/03/10 11:40:06;;;;;;;4.53;4.23;;;;;;;5.40;63.85;99997.19;5057354;28;20297;-66